sensor_id;sensor_type;location;lat;lon;timestamp;temperature;humidity
20744;DHT22;56303;52.160;-0.428;2024-01-07T00:00:06;6.50;99.90
20744;DHT22;56303;52.160;-0.428;2024-01-07T00:02:34;6.40;99.90
20744;DHT22;56303;52.160;-0.428;2024-01-07T00:05:01;6.60;99.90
20744;DHT22;56303;52.160;-0.428;2024-01-07T00:07:28;6.40;99.90
20744;DHT22;56303;52.160;-0.428;2024-01-07T00:09:55;6.40;99.90
20744;DHT22;56303;52.160;-0.428;2024-01-07T00:12:22;6.60;99.90
20744;DHT22;56303;52.160;-0.428;2024-01-07T00:14:51;6.10;99.90
20744;DHT22;56303;52.160;-0.428;2024-01-07T00:17:18;5.80;99.90
20744;DHT22;56303;52.160;-0.428;2024-01-07T00:19:45;5.50;99.90
20744;DHT22;56303;52.160;-0.428;2024-01-07T00:22:12;5.50;99.90
20744;DHT22;56303;52.160;-0.428;2024-01-07T00:24:39;5.50;99.90
20744;DHT22;56303;52.160;-0.428;2024-01-07T00:27:06;5.50;99.90
20744;DHT22;56303;52.160;-0.428;2024-01-07T00:29:35;5.50;99.90
20744;DHT22;56303;52.160;-0.428;2024-01-07T00:32:02;5.60;99.90
20744;DHT22;56303;52.160;-0.428;2024-01-07T00:34:29;5.80;99.90
20744;DHT22;56303;52.160;-0.428;2024-01-07T00:36:57;5.70;99.90
20744;DHT22;56303;52.160;-0.428;2024-01-07T00:39:24;5.70;99.90
20744;DHT22;56303;52.160;-0.428;2024-01-07T00:41:51;5.50;99.90
20744;DHT22;56303;52.160;-0.428;2024-01-07T00:44:18;5.20;99.90
20744;DHT22;56303;52.160;-0.428;2024-01-07T00:46:45;5.20;99.90
20744;DHT22;56303;52.160;-0.428;2024-01-07T00:49:15;5.20;99.90
20744;DHT22;56303;52.160;-0.428;2024-01-07T00:51:42;5.10;99.90
20744;DHT22;56303;52.160;-0.428;2024-01-07T00:54:09;5.10;99.90
20744;DHT22;56303;52.160;-0.428;2024-01-07T00:56:37;5.30;99.90
20744;DHT22;56303;52.160;-0.428;2024-01-07T00:59:04;5.30;99.90
20744;DHT22;56303;52.160;-0.428;2024-01-07T01:01:31;5.20;99.90
20744;DHT22;56303;52.160;-0.428;2024-01-07T01:03:58;5.20;99.90
20744;DHT22;56303;52.160;-0.428;2024-01-07T01:06:25;5.40;99.90
20744;DHT22;56303;52.160;-0.428;2024-01-07T01:08:52;6.80;99.90
20744;DHT22;56303;52.160;-0.428;2024-01-07T01:11:19;5.90;99.90
20744;DHT22;56303;52.160;-0.428;2024-01-07T01:13:46;6.00;99.90
20744;DHT22;56303;52.160;-0.428;2024-01-07T01:16:13;6.00;99.90
20744;DHT22;56303;52.160;-0.428;2024-01-07T01:18:40;4.10;99.90
20744;DHT22;56303;52.160;-0.428;2024-01-07T01:21:07;6.00;99.90
20744;DHT22;56303;52.160;-0.428;2024-01-07T01:23:35;5.90;99.90
20744;DHT22;56303;52.160;-0.428;2024-01-07T01:26:02;5.90;99.90
20744;DHT22;56303;52.160;-0.428;2024-01-07T01:28:29;5.90;99.90
20744;DHT22;56303;52.160;-0.428;2024-01-07T01:30:56;5.80;99.90
20744;DHT22;56303;52.160;-0.428;2024-01-07T01:33:23;5.80;99.90
20744;DHT22;56303;52.160;-0.428;2024-01-07T01:35:50;5.80;99.90
20744;DHT22;56303;52.160;-0.428;2024-01-07T01:38:17;5.80;99.90
20744;DHT22;56303;52.160;-0.428;2024-01-07T01:40:51;5.80;99.90
20744;DHT22;56303;52.160;-0.428;2024-01-07T01:43:29;5.90;99.90
20744;DHT22;56303;52.160;-0.428;2024-01-07T01:45:56;6.30;99.90
20744;DHT22;56303;52.160;-0.428;2024-01-07T01:48:25;5.90;99.90
20744;DHT22;56303;52.160;-0.428;2024-01-07T01:50:53;5.70;99.90
20744;DHT22;56303;52.160;-0.428;2024-01-07T01:53:21;5.60;99.90
20744;DHT22;56303;52.160;-0.428;2024-01-07T01:55:48;5.70;99.90
20744;DHT22;56303;52.160;-0.428;2024-01-07T01:58:16;5.60;99.90
20744;DHT22;56303;52.160;-0.428;2024-01-07T02:00:44;5.60;99.90
20744;DHT22;56303;52.160;-0.428;2024-01-07T02:03:12;5.80;99.90
20744;DHT22;56303;52.160;-0.428;2024-01-07T02:05:40;5.90;99.90
20744;DHT22;56303;52.160;-0.428;2024-01-07T02:08:07;6.00;99.90
20744;DHT22;56303;52.160;-0.428;2024-01-07T02:10:35;5.80;99.90
20744;DHT22;56303;52.160;-0.428;2024-01-07T02:13:06;5.70;99.90
20744;DHT22;56303;52.160;-0.428;2024-01-07T02:15:33;5.80;99.90
20744;DHT22;56303;52.160;-0.428;2024-01-07T02:18:01;5.70;99.90
20744;DHT22;56303;52.160;-0.428;2024-01-07T02:20:28;5.70;99.90
20744;DHT22;56303;52.160;-0.428;2024-01-07T02:22:55;5.50;99.90
20744;DHT22;56303;52.160;-0.428;2024-01-07T02:25:24;5.40;99.90
20744;DHT22;56303;52.160;-0.428;2024-01-07T02:27:51;5.40;99.90
20744;DHT22;56303;52.160;-0.428;2024-01-07T02:30:18;5.50;99.90
20744;DHT22;56303;52.160;-0.428;2024-01-07T02:32:46;5.80;99.90
20744;DHT22;56303;52.160;-0.428;2024-01-07T02:35:13;5.60;99.90
20744;DHT22;56303;52.160;-0.428;2024-01-07T02:37:40;5.60;99.90
20744;DHT22;56303;52.160;-0.428;2024-01-07T02:40:07;5.40;99.90
20744;DHT22;56303;52.160;-0.428;2024-01-07T02:42:34;5.40;99.90
20744;DHT22;56303;52.160;-0.428;2024-01-07T02:45:01;5.20;99.90
20744;DHT22;56303;52.160;-0.428;2024-01-07T02:47:28;5.00;99.90
20744;DHT22;56303;52.160;-0.428;2024-01-07T02:49:56;6.30;99.90
20744;DHT22;56303;52.160;-0.428;2024-01-07T02:52:23;5.10;99.90
20744;DHT22;56303;52.160;-0.428;2024-01-07T02:54:50;5.20;99.90
20744;DHT22;56303;52.160;-0.428;2024-01-07T02:57:17;5.20;99.90
20744;DHT22;56303;52.160;-0.428;2024-01-07T02:59:44;5.10;99.90
20744;DHT22;56303;52.160;-0.428;2024-01-07T03:02:10;4.00;99.90
20744;DHT22;56303;52.160;-0.428;2024-01-07T03:04:37;5.20;99.90
20744;DHT22;56303;52.160;-0.428;2024-01-07T03:07:04;5.50;99.90
20744;DHT22;56303;52.160;-0.428;2024-01-07T03:09:31;5.20;99.90
20744;DHT22;56303;52.160;-0.428;2024-01-07T03:11:58;5.00;99.90
20744;DHT22;56303;52.160;-0.428;2024-01-07T03:14:25;5.20;99.90
20744;DHT22;56303;52.160;-0.428;2024-01-07T03:16:53;5.20;99.90
20744;DHT22;56303;52.160;-0.428;2024-01-07T03:19:20;5.40;99.90
20744;DHT22;56303;52.160;-0.428;2024-01-07T03:21:48;5.20;99.90
20744;DHT22;56303;52.160;-0.428;2024-01-07T03:24:16;5.00;99.90
20744;DHT22;56303;52.160;-0.428;2024-01-07T03:26:42;5.00;99.90
20744;DHT22;56303;52.160;-0.428;2024-01-07T03:29:09;5.30;99.90
20744;DHT22;56303;52.160;-0.428;2024-01-07T03:31:36;5.50;99.90
20744;DHT22;56303;52.160;-0.428;2024-01-07T03:34:04;5.70;99.90
20744;DHT22;56303;52.160;-0.428;2024-01-07T03:36:31;5.60;99.90
20744;DHT22;56303;52.160;-0.428;2024-01-07T03:38:58;5.40;99.90
20744;DHT22;56303;52.160;-0.428;2024-01-07T03:41:25;6.60;99.90
20744;DHT22;56303;52.160;-0.428;2024-01-07T03:43:52;5.30;99.90
20744;DHT22;56303;52.160;-0.428;2024-01-07T03:46:20;5.40;99.90
20744;DHT22;56303;52.160;-0.428;2024-01-07T03:48:47;5.60;99.90
20744;DHT22;56303;52.160;-0.428;2024-01-07T03:51:15;5.60;99.90
20744;DHT22;56303;52.160;-0.428;2024-01-07T03:53:42;6.70;99.90
20744;DHT22;56303;52.160;-0.428;2024-01-07T03:56:09;5.30;99.90
20744;DHT22;56303;52.160;-0.428;2024-01-07T03:58:36;4.90;99.90
20744;DHT22;56303;52.160;-0.428;2024-01-07T04:01:03;5.00;99.90
20744;DHT22;56303;52.160;-0.428;2024-01-07T04:03:31;5.10;99.90
20744;DHT22;56303;52.160;-0.428;2024-01-07T04:05:58;5.10;99.90
20744;DHT22;56303;52.160;-0.428;2024-01-07T04:08:25;5.20;99.90
20744;DHT22;56303;52.160;-0.428;2024-01-07T04:10:52;5.20;99.90
20744;DHT22;56303;52.160;-0.428;2024-01-07T04:13:20;5.20;99.90
20744;DHT22;56303;52.160;-0.428;2024-01-07T04:15:47;5.20;99.90
20744;DHT22;56303;52.160;-0.428;2024-01-07T04:18:15;5.10;99.90
20744;DHT22;56303;52.160;-0.428;2024-01-07T04:20:42;5.10;99.90
20744;DHT22;56303;52.160;-0.428;2024-01-07T04:23:09;5.20;99.90
20744;DHT22;56303;52.160;-0.428;2024-01-07T04:25:36;5.00;99.90
20744;DHT22;56303;52.160;-0.428;2024-01-07T04:28:03;5.20;99.90
20744;DHT22;56303;52.160;-0.428;2024-01-07T04:30:30;5.20;99.90
20744;DHT22;56303;52.160;-0.428;2024-01-07T04:32:57;5.30;99.90
20744;DHT22;56303;52.160;-0.428;2024-01-07T04:35:24;5.30;99.90
20744;DHT22;56303;52.160;-0.428;2024-01-07T04:37:51;5.40;99.90
20744;DHT22;56303;52.160;-0.428;2024-01-07T04:40:18;5.50;99.90
20744;DHT22;56303;52.160;-0.428;2024-01-07T04:42:45;5.40;99.90
20744;DHT22;56303;52.160;-0.428;2024-01-07T04:45:13;5.60;99.90
20744;DHT22;56303;52.160;-0.428;2024-01-07T04:47:40;5.50;99.90
20744;DHT22;56303;52.160;-0.428;2024-01-07T04:50:07;5.50;99.90
20744;DHT22;56303;52.160;-0.428;2024-01-07T04:52:34;5.40;99.90
20744;DHT22;56303;52.160;-0.428;2024-01-07T04:55:01;5.30;99.90
20744;DHT22;56303;52.160;-0.428;2024-01-07T04:57:28;5.70;99.90
20744;DHT22;56303;52.160;-0.428;2024-01-07T04:59:55;5.60;99.90
20744;DHT22;56303;52.160;-0.428;2024-01-07T05:02:22;5.90;99.90
20744;DHT22;56303;52.160;-0.428;2024-01-07T05:04:50;5.90;99.90
20744;DHT22;56303;52.160;-0.428;2024-01-07T05:07:17;5.60;99.90
20744;DHT22;56303;52.160;-0.428;2024-01-07T05:09:44;5.50;99.90
20744;DHT22;56303;52.160;-0.428;2024-01-07T05:12:11;4.60;99.90
20744;DHT22;56303;52.160;-0.428;2024-01-07T05:14:38;5.10;99.90
20744;DHT22;56303;52.160;-0.428;2024-01-07T05:17:05;5.10;99.90
20744;DHT22;56303;52.160;-0.428;2024-01-07T05:19:32;5.00;99.90
20744;DHT22;56303;52.160;-0.428;2024-01-07T05:21:59;5.20;99.90
20744;DHT22;56303;52.160;-0.428;2024-01-07T05:24:26;5.10;99.90
20744;DHT22;56303;52.160;-0.428;2024-01-07T05:26:53;4.70;99.90
20744;DHT22;56303;52.160;-0.428;2024-01-07T05:29:21;4.70;99.90
20744;DHT22;56303;52.160;-0.428;2024-01-07T05:31:49;5.00;99.90
20744;DHT22;56303;52.160;-0.428;2024-01-07T05:34:16;4.80;99.90
20744;DHT22;56303;52.160;-0.428;2024-01-07T05:36:44;4.80;99.90
20744;DHT22;56303;52.160;-0.428;2024-01-07T05:39:11;4.70;99.90
20744;DHT22;56303;52.160;-0.428;2024-01-07T05:41:38;4.60;99.90
20744;DHT22;56303;52.160;-0.428;2024-01-07T05:44:08;4.80;99.90
20744;DHT22;56303;52.160;-0.428;2024-01-07T05:46:39;4.70;99.90
20744;DHT22;56303;52.160;-0.428;2024-01-07T05:49:07;4.80;99.90
20744;DHT22;56303;52.160;-0.428;2024-01-07T05:51:39;4.80;99.90
20744;DHT22;56303;52.160;-0.428;2024-01-07T05:54:06;5.00;99.90
20744;DHT22;56303;52.160;-0.428;2024-01-07T05:56:39;4.80;99.90
20744;DHT22;56303;52.160;-0.428;2024-01-07T05:59:07;4.80;99.90
20744;DHT22;56303;52.160;-0.428;2024-01-07T06:01:35;4.90;99.90
20744;DHT22;56303;52.160;-0.428;2024-01-07T06:04:02;4.90;99.90
20744;DHT22;56303;52.160;-0.428;2024-01-07T06:06:29;4.80;99.90
20744;DHT22;56303;52.160;-0.428;2024-01-07T06:08:57;5.10;99.90
20744;DHT22;56303;52.160;-0.428;2024-01-07T06:11:24;4.90;99.90
20744;DHT22;56303;52.160;-0.428;2024-01-07T06:13:51;4.80;99.90
20744;DHT22;56303;52.160;-0.428;2024-01-07T06:16:18;5.00;99.90
20744;DHT22;56303;52.160;-0.428;2024-01-07T06:18:45;4.80;99.90
20744;DHT22;56303;52.160;-0.428;2024-01-07T06:21:13;4.90;99.90
20744;DHT22;56303;52.160;-0.428;2024-01-07T06:23:40;4.60;99.90
20744;DHT22;56303;52.160;-0.428;2024-01-07T06:26:07;4.50;99.90
20744;DHT22;56303;52.160;-0.428;2024-01-07T06:28:34;4.50;99.90
20744;DHT22;56303;52.160;-0.428;2024-01-07T06:31:04;4.90;99.90
20744;DHT22;56303;52.160;-0.428;2024-01-07T06:33:32;4.80;99.90
20744;DHT22;56303;52.160;-0.428;2024-01-07T06:36:00;4.80;99.90
20744;DHT22;56303;52.160;-0.428;2024-01-07T06:38:27;4.90;99.90
20744;DHT22;56303;52.160;-0.428;2024-01-07T06:40:54;5.10;99.90
20744;DHT22;56303;52.160;-0.428;2024-01-07T06:43:27;4.90;99.90
20744;DHT22;56303;52.160;-0.428;2024-01-07T06:45:54;4.40;99.90
20744;DHT22;56303;52.160;-0.428;2024-01-07T06:48:21;4.50;99.90
20744;DHT22;56303;52.160;-0.428;2024-01-07T06:50:48;4.30;99.90
20744;DHT22;56303;52.160;-0.428;2024-01-07T06:53:15;4.30;99.90
20744;DHT22;56303;52.160;-0.428;2024-01-07T06:55:43;4.40;99.90
20744;DHT22;56303;52.160;-0.428;2024-01-07T06:58:10;4.20;99.90
20744;DHT22;56303;52.160;-0.428;2024-01-07T07:00:37;4.10;99.90
20744;DHT22;56303;52.160;-0.428;2024-01-07T07:03:05;4.30;99.90
20744;DHT22;56303;52.160;-0.428;2024-01-07T07:05:32;4.30;99.90
20744;DHT22;56303;52.160;-0.428;2024-01-07T07:08:01;4.50;99.90
20744;DHT22;56303;52.160;-0.428;2024-01-07T07:10:28;4.60;99.90
20744;DHT22;56303;52.160;-0.428;2024-01-07T07:12:55;5.20;99.90
20744;DHT22;56303;52.160;-0.428;2024-01-07T07:15:22;4.90;99.90
20744;DHT22;56303;52.160;-0.428;2024-01-07T07:17:49;4.70;99.90
20744;DHT22;56303;52.160;-0.428;2024-01-07T07:20:16;4.80;99.90
20744;DHT22;56303;52.160;-0.428;2024-01-07T07:22:43;5.00;99.90
20744;DHT22;56303;52.160;-0.428;2024-01-07T07:25:10;5.20;99.90
20744;DHT22;56303;52.160;-0.428;2024-01-07T07:27:38;5.00;99.90
20744;DHT22;56303;52.160;-0.428;2024-01-07T07:30:06;5.20;99.90
20744;DHT22;56303;52.160;-0.428;2024-01-07T07:32:33;5.20;99.90
20744;DHT22;56303;52.160;-0.428;2024-01-07T07:35:00;4.80;99.90
20744;DHT22;56303;52.160;-0.428;2024-01-07T07:37:28;4.80;99.90
20744;DHT22;56303;52.160;-0.428;2024-01-07T07:39:56;3.30;99.90
20744;DHT22;56303;52.160;-0.428;2024-01-07T07:42:23;4.90;99.90
20744;DHT22;56303;52.160;-0.428;2024-01-07T07:44:50;4.50;99.90
20744;DHT22;56303;52.160;-0.428;2024-01-07T07:47:17;4.30;99.90
20744;DHT22;56303;52.160;-0.428;2024-01-07T07:49:44;4.20;99.90
20744;DHT22;56303;52.160;-0.428;2024-01-07T07:52:12;4.30;99.90
20744;DHT22;56303;52.160;-0.428;2024-01-07T07:54:41;4.30;99.90
20744;DHT22;56303;52.160;-0.428;2024-01-07T07:57:08;4.70;99.90
20744;DHT22;56303;52.160;-0.428;2024-01-07T07:59:35;2.80;99.90
20744;DHT22;56303;52.160;-0.428;2024-01-07T08:02:02;5.10;99.90
20744;DHT22;56303;52.160;-0.428;2024-01-07T08:04:30;5.00;99.90
20744;DHT22;56303;52.160;-0.428;2024-01-07T08:06:57;5.20;99.90
20744;DHT22;56303;52.160;-0.428;2024-01-07T08:09:25;5.20;99.90
20744;DHT22;56303;52.160;-0.428;2024-01-07T08:11:52;5.30;99.90
20744;DHT22;56303;52.160;-0.428;2024-01-07T08:14:19;5.50;99.90
20744;DHT22;56303;52.160;-0.428;2024-01-07T08:16:46;5.70;99.90
20744;DHT22;56303;52.160;-0.428;2024-01-07T08:19:13;5.40;99.90
20744;DHT22;56303;52.160;-0.428;2024-01-07T08:21:41;5.20;99.90
20744;DHT22;56303;52.160;-0.428;2024-01-07T08:24:08;5.40;99.90
20744;DHT22;56303;52.160;-0.428;2024-01-07T08:26:37;5.30;99.90
20744;DHT22;56303;52.160;-0.428;2024-01-07T08:29:04;5.10;99.90
20744;DHT22;56303;52.160;-0.428;2024-01-07T08:31:32;6.70;99.90
20744;DHT22;56303;52.160;-0.428;2024-01-07T08:34:00;4.80;99.90
20744;DHT22;56303;52.160;-0.428;2024-01-07T08:36:28;4.50;99.90
20744;DHT22;56303;52.160;-0.428;2024-01-07T08:38:56;4.50;99.90
20744;DHT22;56303;52.160;-0.428;2024-01-07T08:41:23;4.40;99.90
20744;DHT22;56303;52.160;-0.428;2024-01-07T08:43:51;5.70;99.90
20744;DHT22;56303;52.160;-0.428;2024-01-07T08:46:22;4.50;99.90
20744;DHT22;56303;52.160;-0.428;2024-01-07T08:48:59;4.80;99.90
20744;DHT22;56303;52.160;-0.428;2024-01-07T08:51:32;4.90;99.90
20744;DHT22;56303;52.160;-0.428;2024-01-07T08:54:09;4.90;99.90
20744;DHT22;56303;52.160;-0.428;2024-01-07T08:56:39;5.20;99.90
20744;DHT22;56303;52.160;-0.428;2024-01-07T08:59:09;3.80;99.90
20744;DHT22;56303;52.160;-0.428;2024-01-07T09:01:46;4.40;99.90
20744;DHT22;56303;52.160;-0.428;2024-01-07T09:04:24;3.60;99.90
20744;DHT22;56303;52.160;-0.428;2024-01-07T09:06:52;3.70;99.90
20744;DHT22;56303;52.160;-0.428;2024-01-07T09:09:21;3.70;99.90
20744;DHT22;56303;52.160;-0.428;2024-01-07T09:11:49;5.30;99.90
20744;DHT22;56303;52.160;-0.428;2024-01-07T09:14:16;3.40;99.90
20744;DHT22;56303;52.160;-0.428;2024-01-07T09:16:43;5.10;99.90
20744;DHT22;56303;52.160;-0.428;2024-01-07T09:19:11;4.90;99.90
20744;DHT22;56303;52.160;-0.428;2024-01-07T09:21:41;4.90;99.90
20744;DHT22;56303;52.160;-0.428;2024-01-07T09:24:08;4.90;99.90
20744;DHT22;56303;52.160;-0.428;2024-01-07T09:26:36;5.00;99.90
20744;DHT22;56303;52.160;-0.428;2024-01-07T09:29:05;5.30;99.90
20744;DHT22;56303;52.160;-0.428;2024-01-07T09:31:36;3.70;99.90
20744;DHT22;56303;52.160;-0.428;2024-01-07T09:34:06;3.50;99.90
20744;DHT22;56303;52.160;-0.428;2024-01-07T09:36:36;5.00;99.90
20744;DHT22;56303;52.160;-0.428;2024-01-07T09:39:03;4.90;99.90
20744;DHT22;56303;52.160;-0.428;2024-01-07T09:41:34;4.80;99.90
20744;DHT22;56303;52.160;-0.428;2024-01-07T09:44:29;5.40;99.90
20744;DHT22;56303;52.160;-0.428;2024-01-07T09:47:00;4.70;99.90
20744;DHT22;56303;52.160;-0.428;2024-01-07T09:49:27;4.80;99.90
20744;DHT22;56303;52.160;-0.428;2024-01-07T09:51:59;4.90;99.90
20744;DHT22;56303;52.160;-0.428;2024-01-07T09:54:28;5.10;99.90
20744;DHT22;56303;52.160;-0.428;2024-01-07T09:57:00;4.80;99.90
20744;DHT22;56303;52.160;-0.428;2024-01-07T09:59:30;4.70;99.90
20744;DHT22;56303;52.160;-0.428;2024-01-07T10:01:58;4.90;99.90
20744;DHT22;56303;52.160;-0.428;2024-01-07T10:04:27;4.00;99.90
20744;DHT22;56303;52.160;-0.428;2024-01-07T10:06:56;5.10;99.90
20744;DHT22;56303;52.160;-0.428;2024-01-07T10:09:43;5.10;99.90
20744;DHT22;56303;52.160;-0.428;2024-01-07T10:12:23;4.70;99.90
20744;DHT22;56303;52.160;-0.428;2024-01-07T10:14:55;4.10;99.90
20744;DHT22;56303;52.160;-0.428;2024-01-07T10:17:22;4.90;99.90
20744;DHT22;56303;52.160;-0.428;2024-01-07T10:19:55;4.80;99.90
20744;DHT22;56303;52.160;-0.428;2024-01-07T10:22:37;5.00;99.90
20744;DHT22;56303;52.160;-0.428;2024-01-07T10:25:07;4.70;99.90
20744;DHT22;56303;52.160;-0.428;2024-01-07T10:27:35;5.00;99.90
20744;DHT22;56303;52.160;-0.428;2024-01-07T10:40:47;5.00;99.90
20744;DHT22;56303;52.160;-0.428;2024-01-07T10:43:17;5.10;99.90
20744;DHT22;56303;52.160;-0.428;2024-01-07T10:45:47;5.10;99.90
20744;DHT22;56303;52.160;-0.428;2024-01-07T10:48:17;5.50;99.90
20744;DHT22;56303;52.160;-0.428;2024-01-07T10:50:50;5.50;99.90
20744;DHT22;56303;52.160;-0.428;2024-01-07T10:53:21;5.60;99.90
20744;DHT22;56303;52.160;-0.428;2024-01-07T10:55:55;5.70;99.90
20744;DHT22;56303;52.160;-0.428;2024-01-07T10:58:26;5.50;99.90
20744;DHT22;56303;52.160;-0.428;2024-01-07T11:00:54;5.50;99.90
20744;DHT22;56303;52.160;-0.428;2024-01-07T11:06:53;5.50;99.90
20744;DHT22;56303;52.160;-0.428;2024-01-07T11:09:54;5.00;99.90
20744;DHT22;56303;52.160;-0.428;2024-01-07T11:12:22;5.40;99.90
20744;DHT22;56303;52.160;-0.428;2024-01-07T11:14:50;5.30;99.90
20744;DHT22;56303;52.160;-0.428;2024-01-07T11:20:00;5.10;99.90
20744;DHT22;56303;52.160;-0.428;2024-01-07T11:22:28;5.40;99.90
20744;DHT22;56303;52.160;-0.428;2024-01-07T11:25:20;5.40;99.90
20744;DHT22;56303;52.160;-0.428;2024-01-07T11:27:56;5.70;99.90
20744;DHT22;56303;52.160;-0.428;2024-01-07T11:30:24;5.70;99.90
20744;DHT22;56303;52.160;-0.428;2024-01-07T11:32:59;5.70;99.90
20744;DHT22;56303;52.160;-0.428;2024-01-07T11:38:23;6.10;99.90
20744;DHT22;56303;52.160;-0.428;2024-01-07T11:40:50;4.60;99.90
20744;DHT22;56303;52.160;-0.428;2024-01-07T11:43:18;6.40;99.90
20744;DHT22;56303;52.160;-0.428;2024-01-07T11:45:46;6.40;99.90
20744;DHT22;56303;52.160;-0.428;2024-01-07T11:48:13;6.70;99.90
20744;DHT22;56303;52.160;-0.428;2024-01-07T11:50:41;6.70;99.90
20744;DHT22;56303;52.160;-0.428;2024-01-07T11:53:12;6.60;99.90
20744;DHT22;56303;52.160;-0.428;2024-01-07T11:55:40;6.90;99.90
20744;DHT22;56303;52.160;-0.428;2024-01-07T11:58:07;7.00;99.90
20744;DHT22;56303;52.160;-0.428;2024-01-07T12:00:34;6.90;99.90
20744;DHT22;56303;52.160;-0.428;2024-01-07T12:03:02;7.10;99.90
20744;DHT22;56303;52.160;-0.428;2024-01-07T12:05:30;7.00;99.90
20744;DHT22;56303;52.160;-0.428;2024-01-07T12:07:59;6.60;99.90
20744;DHT22;56303;52.160;-0.428;2024-01-07T12:10:26;7.10;99.90
20744;DHT22;56303;52.160;-0.428;2024-01-07T12:12:54;7.60;99.90
20744;DHT22;56303;52.160;-0.428;2024-01-07T12:15:21;7.90;99.90
20744;DHT22;56303;52.160;-0.428;2024-01-07T12:18:00;8.10;99.90
20744;DHT22;56303;52.160;-0.428;2024-01-07T12:20:29;8.10;99.90
20744;DHT22;56303;52.160;-0.428;2024-01-07T12:23:07;8.30;99.90
20744;DHT22;56303;52.160;-0.428;2024-01-07T12:25:37;8.70;99.90
20744;DHT22;56303;52.160;-0.428;2024-01-07T12:28:08;8.00;99.90
20744;DHT22;56303;52.160;-0.428;2024-01-07T12:30:36;8.20;99.90
20744;DHT22;56303;52.160;-0.428;2024-01-07T12:33:05;8.00;99.90
20744;DHT22;56303;52.160;-0.428;2024-01-07T12:35:32;7.60;99.90
20744;DHT22;56303;52.160;-0.428;2024-01-07T12:38:01;7.90;99.90
20744;DHT22;56303;52.160;-0.428;2024-01-07T12:40:28;7.30;99.90
20744;DHT22;56303;52.160;-0.428;2024-01-07T12:42:55;6.70;99.90
20744;DHT22;56303;52.160;-0.428;2024-01-07T12:45:22;6.10;99.90
20744;DHT22;56303;52.160;-0.428;2024-01-07T12:48:04;5.90;99.90
20744;DHT22;56303;52.160;-0.428;2024-01-07T12:50:33;7.10;99.90
20744;DHT22;56303;52.160;-0.428;2024-01-07T12:53:04;6.50;99.90
20744;DHT22;56303;52.160;-0.428;2024-01-07T12:55:40;6.30;99.90
20744;DHT22;56303;52.160;-0.428;2024-01-07T12:58:09;6.70;99.90
20744;DHT22;56303;52.160;-0.428;2024-01-07T13:00:38;6.00;99.90
20744;DHT22;56303;52.160;-0.428;2024-01-07T13:03:09;5.70;99.90
20744;DHT22;56303;52.160;-0.428;2024-01-07T13:05:45;5.10;99.90
20744;DHT22;56303;52.160;-0.428;2024-01-07T13:08:13;5.60;99.90
20744;DHT22;56303;52.160;-0.428;2024-01-07T13:10:40;5.60;99.90
20744;DHT22;56303;52.160;-0.428;2024-01-07T13:13:07;4.90;99.90
20744;DHT22;56303;52.160;-0.428;2024-01-07T13:15:41;5.60;99.90
20744;DHT22;56303;52.160;-0.428;2024-01-07T13:18:10;5.80;99.90
20744;DHT22;56303;52.160;-0.428;2024-01-07T13:20:39;5.90;99.90
20744;DHT22;56303;52.160;-0.428;2024-01-07T13:23:06;6.00;99.90
20744;DHT22;56303;52.160;-0.428;2024-01-07T13:25:33;4.20;99.90
20744;DHT22;56303;52.160;-0.428;2024-01-07T13:28:00;5.70;99.90
20744;DHT22;56303;52.160;-0.428;2024-01-07T13:30:27;5.60;99.90
20744;DHT22;56303;52.160;-0.428;2024-01-07T13:32:54;5.70;99.90
20744;DHT22;56303;52.160;-0.428;2024-01-07T13:35:33;4.70;99.90
20744;DHT22;56303;52.160;-0.428;2024-01-07T13:38:00;5.40;99.90
20744;DHT22;56303;52.160;-0.428;2024-01-07T13:40:28;5.40;99.90
20744;DHT22;56303;52.160;-0.428;2024-01-07T13:42:55;5.60;99.90
20744;DHT22;56303;52.160;-0.428;2024-01-07T13:45:23;5.60;99.90
20744;DHT22;56303;52.160;-0.428;2024-01-07T13:47:50;5.80;99.90
20744;DHT22;56303;52.160;-0.428;2024-01-07T13:50:18;4.70;99.90
20744;DHT22;56303;52.160;-0.428;2024-01-07T13:52:45;4.90;99.90
20744;DHT22;56303;52.160;-0.428;2024-01-07T13:55:12;5.80;99.90
20744;DHT22;56303;52.160;-0.428;2024-01-07T13:57:40;5.70;99.90
20744;DHT22;56303;52.160;-0.428;2024-01-07T14:00:09;5.60;99.90
20744;DHT22;56303;52.160;-0.428;2024-01-07T14:02:37;5.80;99.90
20744;DHT22;56303;52.160;-0.428;2024-01-07T14:05:05;5.40;99.90
20744;DHT22;56303;52.160;-0.428;2024-01-07T14:07:38;6.00;99.90
20744;DHT22;56303;52.160;-0.428;2024-01-07T14:10:14;6.20;99.90
20744;DHT22;56303;52.160;-0.428;2024-01-07T14:13:04;6.30;99.90
20744;DHT22;56303;52.160;-0.428;2024-01-07T14:15:33;6.40;99.90
20744;DHT22;56303;52.160;-0.428;2024-01-07T14:18:00;6.10;99.90
20744;DHT22;56303;52.160;-0.428;2024-01-07T14:20:28;5.90;99.90
20744;DHT22;56303;52.160;-0.428;2024-01-07T14:22:56;5.80;99.90
20744;DHT22;56303;52.160;-0.428;2024-01-07T14:25:48;5.40;99.90
20744;DHT22;56303;52.160;-0.428;2024-01-07T14:28:15;5.50;99.90
20744;DHT22;56303;52.160;-0.428;2024-01-07T14:30:43;5.60;99.90
20744;DHT22;56303;52.160;-0.428;2024-01-07T14:33:10;5.70;99.90
20744;DHT22;56303;52.160;-0.428;2024-01-07T14:35:37;4.90;99.90
20744;DHT22;56303;52.160;-0.428;2024-01-07T14:38:04;5.70;99.90
20744;DHT22;56303;52.160;-0.428;2024-01-07T14:40:34;5.80;99.90
20744;DHT22;56303;52.160;-0.428;2024-01-07T14:43:01;5.70;99.90
20744;DHT22;56303;52.160;-0.428;2024-01-07T14:45:28;5.60;99.90
20744;DHT22;56303;52.160;-0.428;2024-01-07T14:47:55;5.90;99.90
20744;DHT22;56303;52.160;-0.428;2024-01-07T14:50:22;6.00;99.90
20744;DHT22;56303;52.160;-0.428;2024-01-07T14:52:59;5.80;99.90
20744;DHT22;56303;52.160;-0.428;2024-01-07T14:55:26;5.80;99.90
20744;DHT22;56303;52.160;-0.428;2024-01-07T14:57:53;5.90;99.90
20744;DHT22;56303;52.160;-0.428;2024-01-07T15:00:20;5.80;99.90
20744;DHT22;56303;52.160;-0.428;2024-01-07T15:02:47;5.60;99.90
20744;DHT22;56303;52.160;-0.428;2024-01-07T15:05:14;5.50;99.90
20744;DHT22;56303;52.160;-0.428;2024-01-07T15:07:41;5.90;99.90
20744;DHT22;56303;52.160;-0.428;2024-01-07T15:10:10;6.00;99.90
20744;DHT22;56303;52.160;-0.428;2024-01-07T15:12:37;6.10;99.90
20744;DHT22;56303;52.160;-0.428;2024-01-07T15:15:17;5.60;99.90
20744;DHT22;56303;52.160;-0.428;2024-01-07T15:17:45;5.50;99.90
20744;DHT22;56303;52.160;-0.428;2024-01-07T15:20:12;5.30;99.90
20744;DHT22;56303;52.160;-0.428;2024-01-07T15:22:40;5.20;99.90
20744;DHT22;56303;52.160;-0.428;2024-01-07T15:25:07;5.30;99.90
20744;DHT22;56303;52.160;-0.428;2024-01-07T15:27:36;5.00;99.90
20744;DHT22;56303;52.160;-0.428;2024-01-07T15:30:04;5.30;99.90
20744;DHT22;56303;52.160;-0.428;2024-01-07T15:32:32;5.20;99.90
20744;DHT22;56303;52.160;-0.428;2024-01-07T15:34:59;5.20;99.90
20744;DHT22;56303;52.160;-0.428;2024-01-07T15:37:26;5.10;99.90
20744;DHT22;56303;52.160;-0.428;2024-01-07T15:39:54;4.20;99.90
20744;DHT22;56303;52.160;-0.428;2024-01-07T15:42:21;5.20;99.90
20744;DHT22;56303;52.160;-0.428;2024-01-07T15:44:49;5.30;99.90
20744;DHT22;56303;52.160;-0.428;2024-01-07T15:47:17;4.00;99.90
20744;DHT22;56303;52.160;-0.428;2024-01-07T15:49:44;5.00;99.90
20744;DHT22;56303;52.160;-0.428;2024-01-07T15:52:12;5.00;99.90
20744;DHT22;56303;52.160;-0.428;2024-01-07T15:54:40;4.90;99.90
20744;DHT22;56303;52.160;-0.428;2024-01-07T15:57:08;4.80;99.90